Time;durP1;ratioP1;P1;durP2;ratioP2;P2;SDS_P1;SDS_P2;PMS_P1;PMS_P2;Temp;Humidity;BMP_temperature;BMP_pressure;BME280_temperature;BME280_humidity;BME280_pressure;Samples;Min_cycle;Max_cycle;Signal;HPM_P1;HPM_P2
2022/10/21 00:00:28;;;;;;;37.88;23.98;;;12.50;99.90;;;;;;5061155;28;20066;-89
2022/10/21 00:02:54;;;;;;;43.70;24.00;;;12.50;99.90;;;;;;5059442;28;20404;-90
2022/10/21 00:05:19;;;;;;;32.97;22.88;;;12.50;99.90;;;;;;5060455;28;20495;-89
2022/10/21 00:07:45;;;;;;;35.05;23.60;;;12.50;99.90;;;;;;5060453;28;20040;-90
2022/10/21 00:10:12;;;;;;;34.00;23.10;;;12.50;99.90;;;;;;5060200;28;20048;-89
2022/10/21 00:12:37;;;;;;;36.17;23.88;;;12.50;99.90;;;;;;5059490;28;20080;-90
2022/10/21 00:15:07;;;;;;;42.95;24.27;;;12.50;99.90;;;;;;5077583;28;20054;-89
2022/10/21 00:17:35;;;;;;;35.80;22.58;;;12.50;99.90;;;;;;5070243;28;20055;-89
2022/10/21 00:20:02;;;;;;;35.17;22.90;;;12.50;99.90;;;;;;5095131;28;20044;-89
2022/10/21 00:22:27;;;;;;;34.88;22.83;;;12.50;99.90;;;;;;5059817;28;20036;-89
2022/10/21 00:24:53;;;;;;;33.80;22.55;;;12.50;99.90;;;;;;5066534;28;20478;-90
2022/10/21 00:27:19;;;;;;;37.42;22.60;;;12.40;99.90;;;;;;5081079;28;20052;-90
2022/10/21 00:29:44;;;;;;;33.90;22.98;;;12.40;99.90;;;;;;5076652;28;20055;-90
2022/10/21 00:32:10;;;;;;;33.95;22.75;;;12.40;99.90;;;;;;5071431;28;20389;-90
2022/10/21 00:34:35;;;;;;;37.45;24.13;;;12.30;99.90;;;;;;5061063;28;20146;-90
2022/10/21 00:37:01;;;;;;;32.83;23.25;;;12.30;99.90;;;;;;5078417;28;20078;-89
2022/10/21 00:39:27;;;;;;;36.70;22.92;;;12.20;99.90;;;;;;5059222;28;20044;-89
2022/10/21 00:41:54;;;;;;;34.22;23.10;;;12.20;99.90;;;;;;5061188;28;20145;-90
2022/10/21 00:44:20;;;;;;;36.53;22.40;;;12.10;99.90;;;;;;5086774;28;20476;-89
2022/10/21 00:47:12;;;;;;;32.75;21.08;;;12.10;99.90;;;;;;5081743;28;20036;-90
2022/10/21 00:49:47;;;;;;;35.13;23.38;;;12.10;99.90;;;;;;5097270;28;20050;-90
2022/10/21 00:52:17;;;;;;;35.63;22.70;;;12.00;99.90;;;;;;5097142;28;20118;-90
2022/10/21 00:54:43;;;;;;;39.28;22.08;;;11.90;99.90;;;;;;5124271;28;20073;-89
2022/10/21 00:57:10;;;;;;;35.67;22.55;;;11.90;99.90;;;;;;5110721;28;20484;-89
2022/10/21 00:59:42;;;;;;;34.83;23.15;;;11.90;99.90;;;;;;5079254;28;20481;-90
2022/10/21 01:02:09;;;;;;;38.97;22.10;;;11.80;99.90;;;;;;5097122;28;20071;-90
2022/10/21 01:04:35;;;;;;;38.10;22.45;;;11.90;99.90;;;;;;5096754;28;20084;-89
2022/10/21 01:07:02;;;;;;;31.15;22.33;;;11.80;99.90;;;;;;5096894;28;20404;-89
2022/10/21 01:09:28;;;;;;;35.03;22.85;;;11.70;99.90;;;;;;5115008;28;20160;-89
2022/10/21 01:11:55;;;;;;;30.95;22.50;;;11.90;99.90;;;;;;5079568;28;20054;-90
2022/10/21 01:14:37;;;;;;;30.73;23.25;;;11.70;99.90;;;;;;5116767;28;20488;-89
2022/10/21 01:17:18;;;;;;;32.15;22.65;;;11.60;99.90;;;;;;5101763;28;20035;-90
2022/10/21 01:20:08;;;;;;;39.60;23.75;;;11.60;99.90;;;;;;5089535;28;20101;-90
2022/10/21 01:23:12;;;;;;;36.80;24.10;;;11.60;99.90;;;;;;5117773;28;20108;-90
2022/10/21 01:26:15;;;;;;;36.53;23.40;;;11.60;99.90;;;;;;5040949;28;20044;-90
2022/10/21 01:29:05;;;;;;;39.10;23.83;;;11.60;99.90;;;;;;5080953;28;20047;-90
2022/10/21 01:31:54;;;;;;;37.25;23.92;;;11.60;99.90;;;;;;5086331;28;20048;-89
2022/10/21 01:34:21;;;;;;;37.28;23.70;;;11.60;99.90;;;;;;5083924;28;20069;-90
2022/10/21 01:37:14;;;;;;;37.72;24.85;;;12.20;99.90;;;;;;5091266;28;20136;-90
2022/10/21 01:39:47;;;;;;;39.05;24.33;;;11.60;99.90;;;;;;5108310;28;20397;-90
2022/10/21 01:42:47;;;;;;;36.45;23.67;;;12.00;99.90;;;;;;5066870;28;20040;-90
2022/10/21 01:45:28;;;;;;;42.63;23.65;;;11.50;99.90;;;;;;5083353;28;20047;-89
2022/10/21 01:47:57;;;;;;;36.60;23.48;;;11.70;99.90;;;;;;5101874;28;20088;-89
2022/10/21 01:50:26;;;;;;;39.03;24.20;;;11.60;99.90;;;;;;5113488;28;20051;-90
2022/10/21 01:52:57;;;;;;;37.35;23.20;;;11.50;99.90;;;;;;5094286;28;20044;-90
2022/10/21 01:55:27;;;;;;;35.53;23.67;;;12.70;99.90;;;;;;5096642;28;20032;-89
2022/10/21 01:57:59;;;;;;;43.67;24.58;;;12.00;99.90;;;;;;5097157;28;20172;-90
2022/10/21 02:00:25;;;;;;;37.88;24.48;;;12.70;99.90;;;;;;5100678;28;20104;-90
2022/10/21 02:02:51;;;;;;;40.38;24.33;;;11.60;99.90;;;;;;5082431;28;20039;-89
2022/10/21 02:05:29;;;;;;;36.28;22.42;;;11.60;99.90;;;;;;5096302;28;20047;-90
2022/10/21 02:07:54;;;;;;;40.08;23.67;;;12.50;99.90;;;;;;5078800;28;20397;-89
2022/10/21 02:10:22;;;;;;;38.60;24.48;;;11.60;99.90;;;;;;5096384;28;20044;-90
2022/10/21 02:12:53;;;;;;;39.40;23.35;;;11.60;99.90;;;;;;5078392;28;20121;-90
2022/10/21 02:15:22;;;;;;;36.53;23.88;;;11.60;99.90;;;;;;5100424;28;20047;-89
2022/10/21 02:18:04;;;;;;;37.45;23.48;;;11.60;99.90;;;;;;5110571;28;20058;-89
2022/10/21 02:20:35;;;;;;;38.25;23.17;;;11.60;99.90;;;;;;5122282;28;20126;-90
2022/10/21 02:23:02;;;;;;;38.20;23.35;;;11.70;99.90;;;;;;5102737;28;20036;-89
2022/10/21 02:25:33;;;;;;;36.85;22.80;;;12.00;99.90;;;;;;5085843;28;20134;-90
2022/10/21 02:27:59;;;;;;;38.45;22.90;;;11.70;99.90;;;;;;5103745;28;20063;-90
2022/10/21 02:30:25;;;;;;;36.17;23.38;;;12.90;99.90;;;;;;5069146;28;20468;-89
2022/10/21 02:33:02;;;;;;;36.20;23.55;;;11.70;99.90;;;;;;5082222;28;20040;-90
2022/10/21 02:35:35;;;;;;;33.65;22.92;;;11.70;99.90;;;;;;5083880;28;20048;-90
2022/10/21 02:38:14;;;;;;;37.35;22.70;;;11.80;99.90;;;;;;5065867;28;20066;-89
2022/10/21 02:40:48;;;;;;;36.78;22.88;;;11.90;99.90;;;;;;5082668;28;20055;-90
2022/10/21 02:43:35;;;;;;;36.72;22.42;;;11.90;99.90;;;;;;5094146;28;20050;-89
2022/10/21 02:46:10;;;;;;;35.45;23.10;;;12.00;99.90;;;;;;5079004;28;20043;-89
2022/10/21 02:48:37;;;;;;;33.72;22.27;;;12.00;99.90;;;;;;5087495;28;20127;-90
2022/10/21 02:51:05;;;;;;;36.00;23.13;;;12.10;99.90;;;;;;5075490;28;20432;-90
2022/10/21 02:53:31;;;;;;;32.65;22.10;;;12.10;99.90;;;;;;5067815;28;20040;-89
2022/10/21 02:55:57;;;;;;;36.42;22.88;;;12.50;99.90;;;;;;5070009;28;20040;-89
2022/10/21 02:58:23;;;;;;;43.13;23.45;;;12.20;99.90;;;;;;5082928;28;20051;-89
2022/10/21 03:00:48;;;;;;;33.70;22.20;;;12.20;99.90;;;;;;5091181;28;20573;-90
2022/10/21 03:03:14;;;;;;;37.10;23.67;;;12.20;99.90;;;;;;5090434;28;20108;-90
2022/10/21 03:05:40;;;;;;;35.97;22.02;;;12.30;99.90;;;;;;5082096;28;20051;-90
2022/10/21 03:08:06;;;;;;;33.90;22.45;;;12.30;99.90;;;;;;5084772;28;20024;-90
2022/10/21 03:10:31;;;;;;;36.80;24.15;;;12.30;99.90;;;;;;5112201;28;20054;-90
2022/10/21 03:12:57;;;;;;;37.55;24.95;;;12.30;99.90;;;;;;5115911;28;20015;-90
2022/10/21 03:15:23;;;;;;;37.55;24.35;;;12.30;99.90;;;;;;5100294;28;20028;-90
2022/10/21 03:17:48;;;;;;;39.17;23.08;;;13.30;99.90;;;;;;5084528;28;20020;-90
2022/10/21 03:20:14;;;;;;;44.25;25.65;;;12.30;99.90;;;;;;5083312;28;20107;-90
2022/10/21 03:22:40;;;;;;;38.45;23.80;;;12.30;99.90;;;;;;5108983;28;20031;-89
2022/10/21 03:25:06;;;;;;;39.40;24.30;;;12.40;99.90;;;;;;5102432;28;20043;-89
2022/10/21 03:27:32;;;;;;;43.75;24.67;;;12.30;99.90;;;;;;5082199;28;20051;-90
2022/10/21 03:29:57;;;;;;;43.13;25.25;;;12.40;99.90;;;;;;5085414;28;20035;-90
2022/10/21 03:32:23;;;;;;;43.15;25.15;;;12.40;99.90;;;;;;5119240;28;20035;-90
2022/10/21 03:34:49;;;;;;;39.53;24.20;;;13.40;99.90;;;;;;5081998;28;20446;-90
2022/10/21 03:37:14;;;;;;;39.90;24.73;;;12.90;99.90;;;;;;5089704;28;20048;-89
2022/10/21 03:39:40;;;;;;;42.92;24.95;;;12.40;99.90;;;;;;5063162;28;20105;-90
2022/10/21 03:42:06;;;;;;;49.78;25.50;;;12.40;99.90;;;;;;5093145;28;20071;-90
2022/10/21 03:44:32;;;;;;;45.75;25.33;;;12.40;99.90;;;;;;5097164;28;20058;-90
2022/10/21 03:46:57;;;;;;;42.25;25.55;;;12.40;99.90;;;;;;5062612;28;20073;-90
2022/10/21 03:49:23;;;;;;;42.17;25.08;;;12.40;99.90;;;;;;5062685;28;20404;-90
2022/10/21 03:51:49;;;;;;;43.50;26.00;;;12.40;99.90;;;;;;5077635;28;20044;-90
2022/10/21 03:54:15;;;;;;;43.03;24.33;;;12.40;99.90;;;;;;5067677;28;20043;-90
2022/10/21 03:56:41;;;;;;;44.00;25.13;;;12.40;99.90;;;;;;5069758;28;20040;-90
2022/10/21 03:59:07;;;;;;;39.97;24.75;;;12.40;99.90;;;;;;5078224;28;20044;-90
2022/10/21 04:01:32;;;;;;;43.53;25.45;;;12.40;99.90;;;;;;5084740;28;20047;-90
2022/10/21 04:03:58;;;;;;;41.00;24.98;;;13.10;99.90;;;;;;5097798;28;20124;-90
2022/10/21 04:06:24;;;;;;;42.00;24.77;;;12.60;99.90;;;;;;5080744;28;20123;-90
2022/10/21 04:08:50;;;;;;;39.63;24.77;;;12.40;99.90;;;;;;5098427;28;20568;-89
2022/10/21 04:11:16;;;;;;;41.22;25.02;;;12.70;99.90;;;;;;5080530;28;20079;-90
2022/10/21 04:13:42;;;;;;;39.10;24.20;;;12.50;99.90;;;;;;5094879;28;20389;-90
2022/10/21 04:16:15;;;;;;;38.03;25.05;;;12.50;99.90;;;;;;5077464;28;20689;-90
2022/10/21 04:18:41;;;;;;;37.17;24.40;;;12.50;99.90;;;;;;5100258;28;20125;-90
2022/10/21 04:21:07;;;;;;;39.55;23.52;;;12.60;99.90;;;;;;5092520;28;20481;-90
2022/10/21 04:23:33;;;;;;;38.80;25.00;;;13.00;99.90;;;;;;5077133;28;20523;-90
2022/10/21 04:25:59;;;;;;;43.72;25.42;;;12.60;99.90;;;;;;5095511;28;20101;-90
2022/10/21 04:28:25;;;;;;;39.65;24.10;;;12.60;99.90;;;;;;5094374;28;20362;-90
2022/10/21 04:30:50;;;;;;;39.38;23.90;;;12.70;99.90;;;;;;5076834;28;20075;-90
2022/10/21 04:33:16;;;;;;;41.08;24.92;;;12.60;99.90;;;;;;5096191;28;20040;-90
2022/10/21 04:35:42;;;;;;;39.63;24.33;;;13.50;99.90;;;;;;5077402;28;20128;-90
2022/10/21 04:38:07;;;;;;;42.10;24.00;;;13.50;99.90;;;;;;5093609;28;20048;-90
2022/10/21 04:40:33;;;;;;;41.40;24.15;;;12.80;99.90;;;;;;5060154;28;20047;-90
2022/10/21 04:43:00;;;;;;;43.35;24.92;;;13.00;99.90;;;;;;5094186;28;20131;-90
2022/10/21 04:45:25;;;;;;;44.75;24.90;;;12.50;99.90;;;;;;5060475;28;20391;-90
2022/10/21 04:47:51;;;;;;;39.88;25.45;;;13.20;99.90;;;;;;5077952;28;20056;-90
2022/10/21 04:50:17;;;;;;;46.55;27.15;;;12.50;99.90;;;;;;5100190;28;20052;-90
2022/10/21 04:52:43;;;;;;;45.13;26.00;;;12.50;99.90;;;;;;5103890;28;20062;-90
2022/10/21 04:55:08;;;;;;;45.72;25.88;;;12.80;99.90;;;;;;5100503;28;20047;-90
2022/10/21 04:57:34;;;;;;;44.47;25.85;;;12.50;99.90;;;;;;5101891;28;20093;-90
2022/10/21 04:59:59;;;;;;;48.55;26.10;;;13.60;99.90;;;;;;5098213;28;20047;-90
2022/10/21 05:02:25;;;;;;;47.58;25.65;;;12.50;99.90;;;;;;5098449;28;20051;-89
2022/10/21 05:04:51;;;;;;;45.17;26.05;;;13.50;99.90;;;;;;5098362;28;20047;-89
2022/10/21 05:07:16;;;;;;;47.80;26.85;;;12.60;99.90;;;;;;5100308;28;20082;-90
2022/10/21 05:09:42;;;;;;;68.78;29.02;;;12.60;99.90;;;;;;5081040;28;20047;-90
2022/10/21 05:12:07;;;;;;;49.25;27.02;;;12.50;99.90;;;;;;5098553;28;20040;-89
2022/10/21 05:14:33;;;;;;;59.90;28.10;;;13.50;99.90;;;;;;5097810;28;20055;-90
2022/10/21 05:16:59;;;;;;;47.72;26.25;;;12.50;99.90;;;;;;5098724;28;20032;-89
2022/10/21 05:19:24;;;;;;;75.28;29.85;;;12.50;99.90;;;;;;5098524;28;20051;-90
2022/10/21 05:21:50;;;;;;;62.10;28.52;;;12.50;99.90;;;;;;5093328;28;20555;-90
2022/10/21 05:24:16;;;;;;;61.20;27.75;;;12.90;99.90;;;;;;5099959;28;20134;-90
2022/10/21 05:26:41;;;;;;;53.78;28.08;;;12.50;99.90;;;;;;5100390;28;20055;-89
2022/10/21 05:29:07;;;;;;;62.15;30.65;;;12.50;99.90;;;;;;5099026;28;20043;-89
2022/10/21 05:31:34;;;;;;;61.83;30.85;;;12.50;99.90;;;;;;5099799;28;20043;-90
2022/10/21 05:33:59;;;;;;;67.28;30.60;;;12.60;99.90;;;;;;5118749;28;20035;-90
2022/10/21 05:36:25;;;;;;;61.35;30.70;;;13.70;99.90;;;;;;5086712;28;20032;-89
2022/10/21 05:38:51;;;;;;;69.53;30.80;;;12.60;99.90;;;;;;5097405;28;20082;-90
2022/10/21 05:41:17;;;;;;;66.35;30.38;;;12.60;99.90;;;;;;5079794;28;20090;-90
2022/10/21 05:43:43;;;;;;;64.25;31.20;;;12.60;99.90;;;;;;5083471;28;20048;-87
2022/10/21 05:46:08;;;;;;;70.65;31.05;;;13.30;99.90;;;;;;5099251;28;20044;-90
2022/10/21 05:48:35;;;;;;;75.65;33.00;;;12.70;99.90;;;;;;5099967;28;20070;-90
2022/10/21 05:51:01;;;;;;;73.32;33.22;;;13.40;99.90;;;;;;5098472;28;20048;-90
2022/10/21 05:53:27;;;;;;;81.32;32.58;;;12.70;99.90;;;;;;5087890;28;20044;-89
2022/10/21 05:55:58;;;;;;;74.30;32.25;;;12.90;99.90;;;;;;5081153;28;20464;-89
2022/10/21 05:58:25;;;;;;;77.70;32.78;;;12.70;99.90;;;;;;5099258;28;20042;-89
2022/10/21 06:00:54;;;;;;;81.90;33.33;;;13.40;99.90;;;;;;5080997;28;20067;-89
2022/10/21 06:03:28;;;;;;;76.45;32.08;;;13.80;99.90;;;;;;5108165;28;20047;-89
2022/10/21 06:05:55;;;;;;;81.55;33.78;;;12.80;99.90;;;;;;5082953;28;20075;-89
2022/10/21 06:08:21;;;;;;;72.50;32.45;;;12.80;99.90;;;;;;5080026;28;20406;-89
2022/10/21 06:10:46;;;;;;;73.32;32.88;;;12.80;99.90;;;;;;5112893;28;20105;-88
2022/10/21 06:13:12;;;;;;;74.95;32.30;;;12.90;99.90;;;;;;5122369;28;20043;-89
2022/10/21 06:15:37;;;;;;;71.88;32.08;;;13.30;99.90;;;;;;5101331;28;20149;-89
2022/10/21 06:18:03;;;;;;;64.07;32.58;;;13.20;99.90;;;;;;5100517;28;20062;-89
2022/10/21 06:20:29;;;;;;;62.22;31.27;;;13.90;99.90;;;;;;5093969;28;20118;-90
2022/10/21 06:22:54;;;;;;;66.10;31.77;;;12.90;99.90;;;;;;5096746;28;20040;-89
2022/10/21 06:25:20;;;;;;;63.53;32.22;;;12.90;99.90;;;;;;5098405;28;20066;-88
2022/10/21 06:27:46;;;;;;;61.13;31.70;;;12.90;99.90;;;;;;5063774;28;20076;-86
2022/10/21 06:30:12;;;;;;;63.05;32.28;;;13.40;99.90;;;;;;5080655;28;20036;-89
2022/10/21 06:32:37;;;;;;;66.88;31.60;;;12.90;99.90;;;;;;5079790;28;20040;-89
2022/10/21 06:35:03;;;;;;;63.05;32.33;;;13.30;99.90;;;;;;5098670;28;20194;-89
2022/10/21 06:37:29;;;;;;;63.28;31.50;;;12.90;99.90;;;;;;5079718;28;20372;-89
2022/10/21 06:39:55;;;;;;;64.25;31.35;;;12.90;99.90;;;;;;5104572;28;20051;-89
2022/10/21 06:42:21;;;;;;;62.70;32.33;;;13.00;99.90;;;;;;5099896;28;20036;-89
2022/10/21 06:44:47;;;;;;;60.92;30.90;;;13.00;99.90;;;;;;5118040;28;20063;-89
2022/10/21 06:47:12;;;;;;;59.30;31.00;;;13.20;99.90;;;;;;5118283;28;20039;-88
2022/10/21 06:49:38;;;;;;;60.33;30.27;;;13.00;99.90;;;;;;5118138;28;20110;-90
2022/10/21 06:52:04;;;;;;;55.17;30.20;;;13.00;99.90;;;;;;5118564;28;20544;-89
2022/10/21 06:54:29;;;;;;;58.90;29.92;;;14.30;99.90;;;;;;5117881;28;20035;-89
2022/10/21 06:56:55;;;;;;;51.78;29.02;;;13.10;99.90;;;;;;5118596;28;20035;-89
2022/10/21 06:59:21;;;;;;;53.80;29.67;;;13.10;99.90;;;;;;5123467;28;20035;-89
2022/10/21 07:01:46;;;;;;;49.67;28.75;;;13.70;99.90;;;;;;5084950;28;20105;-88
2022/10/21 07:04:12;;;;;;;51.65;29.00;;;13.60;99.90;;;;;;5078281;28;20594;-88
2022/10/21 07:06:38;;;;;;;55.53;28.30;;;13.70;99.90;;;;;;5079112;28;20040;-88
2022/10/21 07:09:05;;;;;;;49.40;27.52;;;13.10;99.90;;;;;;5099506;28;20459;-89
2022/10/21 07:11:32;;;;;;;45.63;27.65;;;14.10;99.90;;;;;;5079849;28;20078;-90
2022/10/21 07:13:59;;;;;;;44.65;26.52;;;13.90;99.90;;;;;;5062590;28;20040;-90
2022/10/21 07:16:30;;;;;;;45.42;25.13;;;13.70;99.90;;;;;;5097829;28;20442;-90
2022/10/21 07:18:57;;;;;;;43.20;25.92;;;13.30;99.90;;;;;;5096626;28;20048;-90
2022/10/21 07:21:25;;;;;;;39.30;25.50;;;13.30;99.90;;;;;;5097614;28;20164;-89
2022/10/21 07:23:52;;;;;;;44.25;25.25;;;13.30;99.90;;;;;;5079316;28;20044;-90
2022/10/21 07:26:19;;;;;;;40.33;24.88;;;13.40;99.90;;;;;;5080269;28;20096;-90
2022/10/21 07:28:46;;;;;;;39.05;24.88;;;13.50;99.90;;;;;;5080558;28;20044;-89
2022/10/21 07:31:14;;;;;;;37.88;24.20;;;13.70;99.90;;;;;;5075670;28;20126;-87
2022/10/21 07:33:40;;;;;;;35.35;23.33;;;13.60;99.90;;;;;;5080614;28;20040;-87
2022/10/21 07:36:13;;;;;;;36.97;24.05;;;13.70;99.90;;;;;;5078461;28;20045;-89
2022/10/21 07:38:42;;;;;;;38.25;24.10;;;14.50;99.90;;;;;;5078109;28;20514;-88
2022/10/21 07:41:13;;;;;;;33.22;21.58;;;14.30;99.90;;;;;;5078386;28;20048;-89
2022/10/21 07:43:39;;;;;;;38.55;23.00;;;13.60;99.90;;;;;;5096005;28;20040;-88
2022/10/21 07:46:07;;;;;;;33.13;23.42;;;13.70;99.90;;;;;;5065424;28;20051;-88
2022/10/21 07:48:33;;;;;;;31.33;22.27;;;13.60;99.90;;;;;;5079616;28;20036;-89
2022/10/21 07:51:08;;;;;;;33.35;22.45;;;13.60;99.90;;;;;;5061564;28;20067;-88
2022/10/21 07:53:34;;;;;;;37.88;23.35;;;13.60;99.90;;;;;;5060577;28;20044;-89
2022/10/21 07:56:11;;;;;;;32.22;21.98;;;13.90;99.90;;;;;;5078015;28;20044;-91
2022/10/21 07:58:37;;;;;;;30.20;21.65;;;13.60;99.90;;;;;;5106745;28;20035;-88
2022/10/21 08:01:05;;;;;;;34.92;21.90;;;14.00;99.90;;;;;;5111956;28;20089;-90
2022/10/21 08:03:31;;;;;;;32.28;21.60;;;;;;;;;;5098354;28;20051;-90
2022/10/21 08:05:57;;;;;;;33.92;20.50;;;;;;;;;;5107144;28;20036;-91
2022/10/21 08:08:24;;;;;;;32.33;20.85;;;;;;;;;;5113747;28;20048;-89
2022/10/21 08:10:51;;;;;;;31.48;20.90;;;;;;;;;;5098024;28;20044;-93
2022/10/21 08:13:18;;;;;;;29.80;21.00;;;;;;;;;;5067952;28;20047;-91
2022/10/21 08:15:49;;;;;;;26.85;19.30;;;;;;;;;;5106760;28;20039;-90
2022/10/21 08:18:15;;;;;;;29.65;20.15;;;;;;;;;;5116124;28;20044;-90
2022/10/21 08:20:42;;;;;;;34.55;19.80;;;;;;;;;;5078564;28;20118;-92
2022/10/21 08:23:10;;;;;;;27.17;18.65;;;;;;;;;;5084109;28;20046;-91
2022/10/21 08:25:36;;;;;;;24.55;18.20;;;;;;;;;;5068376;28;20350;-92
2022/10/21 08:28:03;;;;;;;24.05;17.15;;;;;;;;;;5096992;28;20036;-88
2022/10/21 08:30:30;;;;;;;22.02;16.90;;;;;;;;;;5098565;28;20067;-87
2022/10/21 08:33:00;;;;;;;24.90;16.90;;;;;;;;;;5081226;28;20430;-88
2022/10/21 08:35:26;;;;;;;22.08;15.95;;;;;;;;;;5080642;28;20048;-86
2022/10/21 08:37:52;;;;;;;20.02;15.38;;;;;;;;;;5115546;28;20492;-89
2022/10/21 08:40:18;;;;;;;24.25;15.43;;;;;;;;;;5120982;28;20044;-88
2022/10/21 08:42:45;;;;;;;23.75;15.40;;;;;;;;;;5110912;28;20039;-89
2022/10/21 08:45:30;;;;;;;23.55;16.77;;;;;;;;;;5120954;28;20146;-89
2022/10/21 08:47:59;;;;;;;23.58;16.13;;;;;;;;;;5101618;28;20496;-89
2022/10/21 08:50:27;;;;;;;25.95;16.33;;;;;;;;;;5084074;28;20492;-88
2022/10/21 08:52:59;;;;;;;23.48;15.82;;;;;;;;;;5114089;28;20084;-88
2022/10/21 08:55:33;;;;;;;23.17;15.90;;;;;;;;;;5102014;28;20047;-88
2022/10/21 08:57:59;;;;;;;21.55;16.13;;;;;;;;;;5119011;28;20039;-88
2022/10/21 09:00:32;;;;;;;24.75;15.65;;;;;;;;;;5100771;28;20035;-88
2022/10/21 09:03:07;;;;;;;21.63;16.10;;;;;;;;;;5097484;28;20103;-89
2022/10/21 09:05:45;;;;;;;19.90;15.50;;;;;;;;;;5081668;28;20424;-88
2022/10/21 09:08:11;;;;;;;22.25;15.27;;;;;;;;;;5098027;28;20055;-88
2022/10/21 09:10:43;;;;;;;24.15;15.43;;;;;;;;;;5090264;28;20513;-90
2022/10/21 09:13:09;;;;;;;21.30;15.65;;;;;;;;;;5119398;28;20108;-86
2022/10/21 09:15:35;;;;;;;23.58;15.40;;;;;;;;;;5095605;28;20044;-88
2022/10/21 09:18:12;;;;;;;22.40;15.98;;;;;;;;;;5113804;28;20084;-89
2022/10/21 09:20:41;;;;;;;20.33;14.93;;;;;;;;;;5100554;28;20074;-89
2022/10/21 09:23:18;;;;;;;20.88;15.38;;;;;;;;;;5102683;28;20032;-89
2022/10/21 09:26:02;;;;;;;19.65;14.50;;;;;;;;;;5107215;28;20098;-88
2022/10/21 09:28:29;;;;;;;19.13;14.00;;;;;;;;;;5102191;28;20051;-89
2022/10/21 09:30:56;;;;;;;22.10;13.98;;;;;;;;;;5080043;28;20131;-88
2022/10/21 09:33:29;;;;;;;19.90;13.57;;;;;;;;;;5099878;28;20039;-89
2022/10/21 09:36:01;;;;;;;17.70;12.90;;;;;;;;;;5098964;28;20135;-89
2022/10/21 09:38:41;;;;;;;19.55;13.15;;;;;;;;;;5065341;28;20054;-89
2022/10/21 09:41:12;;;;;;;16.45;12.27;;;;;;;;;;5080997;28;20044;-89
2022/10/21 09:43:38;;;;;;;20.98;12.55;;;;;;;;;;5099946;28;20047;-88
2022/10/21 09:46:04;;;;;;;18.30;12.45;;;;;;;;;;5103988;28;20376;-89
2022/10/21 09:48:31;;;;;;;21.35;13.10;;;;;;;;;;5101911;28;20488;-89
2022/10/21 09:51:03;;;;;;;17.60;12.77;;;;;;;;;;5081564;28;20507;-89
2022/10/21 09:53:38;;;;;;;16.17;12.13;;;;;;;;;;5099019;28;20043;-89
2022/10/21 09:56:09;;;;;;;17.45;11.35;;;;;;;;;;5102407;28;20089;-88
2022/10/21 09:58:38;;;;;;;17.48;11.95;;;;;;;;;;5080635;28;20093;-89
2022/10/21 10:01:07;;;;;;;17.48;10.70;;;;;;;;;;5080954;28;20047;-88
2022/10/21 10:03:34;;;;;;;20.05;11.85;;;;;;;;;;5078897;28;20404;-89
2022/10/21 10:06:01;;;;;;;14.88;10.77;;;;;;;;;;5097695;28;20048;-89
2022/10/21 10:08:30;;;;;;;18.35;10.95;;;;;;;;;;5079766;28;20051;-89
2022/10/21 10:11:08;;;;;;;15.82;11.65;;;;;;;;;;5101392;28;20043;-88
2022/10/21 10:13:39;;;;;;;17.88;10.88;;;;;;;;;;5094931;28;20044;-89
2022/10/21 10:16:13;;;;;;;15.02;10.55;;;;;;;;;;5107022;28;20043;-90
2022/10/21 10:18:39;;;;;;;13.63;9.45;;;;;;;;;;5079314;28;20096;-87
2022/10/21 10:21:06;;;;;;;15.13;10.00;;;;;;;;;;5079686;28;20082;-89
2022/10/21 10:23:41;;;;;;;16.65;9.02;;;;;;;;;;5097503;28;20131;-90
2022/10/21 10:26:07;;;;;;;16.17;9.27;;;;;;;;;;5091129;28;20122;-85
2022/10/21 10:28:33;;;;;;;11.82;8.90;;;;;;;;;;5091871;28;20487;-83
2022/10/21 10:30:59;;;;;;;13.40;9.02;;;;;;;;;;5108587;28;20065;-80
2022/10/21 10:33:27;;;;;;;13.10;9.23;;;;;;;;;;5102072;28;20043;-82
2022/10/21 10:35:56;;;;;;;11.18;9.05;;;;;;;;;;5090287;28;20051;-83
2022/10/21 10:38:40;;;;;;;14.30;9.02;;;;;;;;;;5067532;28;20044;-82
2022/10/21 10:41:08;;;;;;;13.70;8.77;;;;;;;;;;5093634;28;20055;-84
2022/10/21 10:43:35;;;;;;;14.13;9.13;;;;;;;;;;5078337;28;20393;-80
2022/10/21 10:46:07;;;;;;;17.83;9.93;;;;;;;;;;5078016;28;20442;-81
2022/10/21 10:48:37;;;;;;;14.45;9.02;;;;;;;;;;5090945;28;20166;-81
2022/10/21 10:51:26;;;;;;;14.27;8.95;;;;;;;;;;5091462;28;20055;-80
2022/10/21 10:54:11;;;;;;;13.48;9.35;;;;;;;;;;5091067;28;20040;-80
2022/10/21 10:56:57;;;;;;;13.75;8.88;;;;;;;;;;5074357;28;20408;-80
2022/10/21 10:59:23;;;;;;;15.15;9.38;;;;;;;;;;5072650;28;20405;-81
2022/10/21 11:01:51;;;;;;;16.50;9.30;;;;;;;;;;5091079;28;20040;-80
2022/10/21 11:04:33;;;;;;;17.98;8.45;;;;;;;;;;5090422;28;20102;-80
2022/10/21 11:07:18;;;;;;;15.10;8.73;;;;;;;;;;5072693;28;20036;-80
2022/10/21 11:09:44;;;;;;;14.63;8.48;;;;;;;;;;5093607;28;20090;-80
2022/10/21 11:12:15;;;;;;;13.75;8.27;;;;;;;;;;5092701;28;20579;-80
2022/10/21 11:14:42;;;;;;;11.05;8.20;;;;;;;;;;5092680;28;20128;-80
2022/10/21 11:17:15;;;;;;;11.88;7.97;;;;;;;;;;5092801;28;20043;-80
2022/10/21 11:19:49;;;;;;;10.65;8.10;;;;;;;;;;5092676;28;20048;-80
2022/10/21 11:22:19;;;;;;;12.93;7.93;;;;;;;;;;5092689;28;20043;-79
2022/10/21 11:24:45;;;;;;;12.88;8.30;;;;;;;;;;5103251;28;20048;-79
2022/10/21 11:27:20;;;;;;;12.57;7.90;;;;;;;;;;5090665;28;20059;-80
2022/10/21 11:29:49;;;;;;;13.93;7.55;;;;;;;;;;5071824;28;20587;-80
2022/10/21 11:32:29;;;;;;;11.25;7.57;;;;;;;;;;5090485;28;20040;-80
2022/10/21 11:35:11;;;;;;;14.38;7.63;;;;;;;;;;5071538;28;20052;-80
2022/10/21 11:37:57;;;;;;;11.05;7.15;;;;;;;;;;5092664;28;20109;-80
2022/10/21 11:40:23;;;;;;;13.40;6.80;;;;;;;;;;5091499;28;20492;-80
2022/10/21 11:42:51;;;;;;;13.18;6.97;;;;;;;;;;5110262;28;20051;-80
2022/10/21 11:45:36;;;;;;;14.75;6.93;;;;;;;;;;5110448;28;20122;-80
2022/10/21 11:48:02;;;;;;;11.13;7.05;;;;;;;;;;5100840;28;20052;-88
2022/10/21 11:50:31;;;;;;;11.18;7.50;;;;;;;;;;5077858;28;20051;-88
2022/10/21 11:53:16;;;;;;;10.15;6.88;;;;;;;;;;5103354;28;20044;-88
2022/10/21 11:55:46;;;;;;;11.23;6.93;;;;;;;;;;5113124;28;20039;-88
2022/10/21 11:58:21;;;;;;;10.07;6.97;;;;;;;;;;5116083;28;20100;-88
2022/10/21 12:00:47;;;;;;;16.35;7.10;;;;;;;;;;5099062;28;20043;-87
2022/10/21 12:03:34;;;;;;;15.18;7.25;;;;;;;;;;5114524;28;20043;-88
2022/10/21 12:06:00;;;;;;;12.23;7.30;;;;;;;;;;5115445;28;20044;-88
2022/10/21 12:08:30;;;;;;;9.98;6.68;;;;;;;;;;5094035;28;20050;-86
2022/10/21 12:11:03;;;;;;;12.57;7.07;;;;;;;;;;5116185;28;20392;-88
2022/10/21 12:13:40;;;;;;;13.20;7.07;;;;;;;;;;5100130;28;20048;-87
2022/10/21 12:16:12;;;;;;;16.33;7.40;;;;;;;;;;5074124;28;20050;-88
2022/10/21 12:18:42;;;;;;;12.27;6.78;;;;;;;;;;5108159;28;20237;-88
2022/10/21 12:21:14;;;;;;;11.73;7.43;;;;;;;;;;5060674;28;20044;-88
2022/10/21 12:23:40;;;;;;;15.18;7.65;;;;;;;;;;5076984;28;20101;-88
2022/10/21 12:26:09;;;;;;;13.45;7.00;;;;;;;;;;5072758;28;20131;-87
2022/10/21 12:28:47;;;;;;;9.38;6.80;;;;;;;;;;5076327;28;20055;-87
2022/10/21 12:31:16;;;;;;;13.48;7.00;;;;;;;;;;5077931;28;20067;-88
2022/10/21 12:33:43;;;;;;;12.63;7.10;;;;;;;;;;5061137;28;20048;-88
2022/10/21 12:36:12;;;;;;;11.40;7.15;;;;;;;;;;5059777;28;20040;-89
2022/10/21 12:38:43;;;;;;;13.73;6.90;;;;;;;;;;5056865;28;20052;-87
2022/10/21 12:41:28;;;;;;;11.10;7.10;;;;;;;;;;5058750;28;20059;-87
2022/10/21 12:44:00;;;;;;;10.02;6.60;;;;;;;;;;5060102;28;20051;-88
2022/10/21 12:46:32;;;;;;;14.38;6.95;;;;;;;;;;5060560;28;20461;-87
2022/10/21 12:49:00;;;;;;;14.13;7.32;;;;;;;;;;5059614;28;20043;-88
2022/10/21 12:51:28;;;;;;;11.07;6.85;;;;;;;;;;5059640;28;20040;-88
2022/10/21 12:54:04;;;;;;;12.38;7.38;;;;;;;;;;5059618;28;20484;-87
2022/10/21 12:56:44;;;;;;;11.32;6.68;;;;;;;;;;5076737;28;20048;-88
2022/10/21 12:59:31;;;;;;;15.25;7.05;;;;;;;;;;5076880;28;20055;-88
2022/10/21 13:02:07;;;;;;;13.35;7.18;;;;;;;;;;5095624;28;20446;-87
2022/10/21 13:04:33;;;;;;;14.15;6.88;;;;;;;;;;5076670;28;20040;-88
2022/10/21 13:07:00;;;;;;;13.35;6.68;;;;;;;;;;5096151;28;20044;-88
2022/10/21 13:09:37;;;;;;;15.43;7.07;;;;;;;;;;5077206;28;20143;-88
2022/10/21 13:12:09;;;;;;;13.40;6.93;;;;;;;;;;5099408;28;20044;-88
2022/10/21 13:14:43;;;;;;;14.38;7.20;;;;;;;;;;5099453;28;20043;-87
2022/10/21 13:17:15;;;;;;;10.88;6.45;;;;;;;;;;5098573;28;20082;-87
2022/10/21 13:19:41;;;;;;;11.35;6.97;;;;;;;;;;5097175;28;20051;-87
2022/10/21 13:22:33;;;;;;;11.85;6.40;;;;;;;;;;5098731;28;20126;-88